Time;durP1;ratioP1;P1;durP2;ratioP2;P2;SDS_P1;SDS_P2;PMS_P1;PMS_P2;Temp;Humidity;BMP_temperature;BMP_pressure;BME280_temperature;BME280_humidity;BME280_pressure;Samples;Min_cycle;Max_cycle;Signal;HPM_P1;HPM_P2
2021/04/07 00:00:19;;;;;;;1.10;0.32;;;1.00;80.50;;;;;;5095008;28;20402;-74
2021/04/07 00:02:45;;;;;;;0.10;0.10;;;1.00;80.60;;;;;;5115218;28;20047;-73
2021/04/07 00:05:13;;;;;;;0.22;0.22;;;1.00;80.60;;;;;;5115207;28;20057;-73
2021/04/07 00:07:40;;;;;;;0.45;0.10;;;0.90;80.70;;;;;;5115163;28;20539;-73
2021/04/07 00:10:08;;;;;;;1.40;0.25;;;0.90;80.80;;;;;;5114895;28;20078;-73
2021/04/07 00:12:34;;;;;;;0.22;0.20;;;0.80;80.90;;;;;;5115012;28;20047;-74
2021/04/07 00:14:59;;;;;;;0.35;0.15;;;0.90;81.00;;;;;;5078140;28;20502;-73
2021/04/07 00:17:25;;;;;;;0.65;0.30;;;0.90;81.00;;;;;;5115069;28;20413;-73
2021/04/07 00:19:51;;;;;;;0.75;0.30;;;0.90;81.00;;;;;;5115030;28;20035;-74
2021/04/07 00:22:17;;;;;;;0.47;0.20;;;0.90;81.00;;;;;;5115649;28;20047;-74
2021/04/07 00:24:42;;;;;;;0.10;0.10;;;0.90;80.90;;;;;;5079624;28;20035;-74
2021/04/07 00:27:11;;;;;;;0.63;0.30;;;0.80;81.00;;;;;;5114826;28;20048;-74
2021/04/07 00:29:37;;;;;;;0.90;0.25;;;0.80;81.10;;;;;;5115205;28;20042;-73
2021/04/07 00:32:04;;;;;;;0.70;0.20;;;0.80;81.10;;;;;;5114845;28;20371;-73
2021/04/07 00:34:32;;;;;;;0.98;0.20;;;0.70;81.20;;;;;;5114546;28;20040;-74
2021/04/07 00:36:58;;;;;;;0.35;0.20;;;0.70;81.30;;;;;;5097413;28;20047;-74
2021/04/07 00:39:24;;;;;;;1.02;0.30;;;0.60;81.30;;;;;;5115128;28;20039;-74
2021/04/07 00:41:50;;;;;;;0.38;0.22;;;0.60;81.50;;;;;;5114748;28;20431;-74
2021/04/07 00:44:15;;;;;;;0.47;0.38;;;0.70;81.60;;;;;;5115178;28;20036;-74
2021/04/07 00:46:41;;;;;;;3.42;0.68;;;0.60;81.50;;;;;;5114801;28;20040;-74
2021/04/07 00:49:07;;;;;;;2.67;0.45;;;0.70;81.50;;;;;;5115196;28;20473;-74
2021/04/07 00:51:32;;;;;;;2.28;0.70;;;0.70;81.40;;;;;;5114465;28;20040;-74
2021/04/07 00:53:58;;;;;;;1.05;0.30;;;0.70;81.40;;;;;;5114729;28;20052;-74
2021/04/07 00:56:25;;;;;;;0.50;0.35;;;0.70;81.30;;;;;;5114877;28;20039;-74
2021/04/07 00:58:51;;;;;;;1.73;0.60;;;0.70;81.30;;;;;;5094353;28;20044;-74
2021/04/07 01:01:17;;;;;;;2.15;0.95;;;0.80;81.40;;;;;;5114330;28;20038;-74
2021/04/07 01:03:43;;;;;;;1.33;0.70;;;0.80;81.30;;;;;;5096198;28;20040;-75
2021/04/07 01:06:09;;;;;;;3.70;1.05;;;0.80;81.20;;;;;;5114485;28;20545;-74
2021/04/07 01:08:35;;;;;;;3.53;0.80;;;0.80;81.10;;;;;;5114404;28;20044;-74
2021/04/07 01:11:01;;;;;;;2.63;0.93;;;0.80;81.10;;;;;;5095053;28;20089;-74
2021/04/07 01:13:27;;;;;;;2.92;0.80;;;0.80;81.10;;;;;;5114084;28;20044;-74
2021/04/07 01:15:52;;;;;;;1.73;0.77;;;0.90;81.20;;;;;;5114015;28;20059;-74
2021/04/07 01:18:18;;;;;;;1.48;0.70;;;0.90;81.20;;;;;;5113723;28;20028;-74
2021/04/07 01:20:44;;;;;;;2.13;0.95;;;0.90;81.20;;;;;;5113933;28;20031;-74
2021/04/07 01:23:10;;;;;;;1.58;1.02;;;0.90;81.20;;;;;;5114584;28;20457;-74
2021/04/07 01:25:36;;;;;;;5.18;1.08;;;0.90;81.30;;;;;;5114261;28;20036;-74
2021/04/07 01:28:02;;;;;;;1.55;0.63;;;0.90;81.30;;;;;;5062417;28;20035;-73
2021/04/07 01:30:28;;;;;;;1.42;0.65;;;0.90;81.40;;;;;;5095989;28;20044;-74
2021/04/07 01:32:54;;;;;;;1.90;0.90;;;0.80;81.40;;;;;;5113848;28;20122;-74
2021/04/07 01:35:23;;;;;;;3.55;0.95;;;0.90;81.60;;;;;;5113913;28;20172;-74
2021/04/07 01:37:48;;;;;;;1.73;0.85;;;0.80;81.60;;;;;;5078766;28;20164;-74
2021/04/07 01:40:17;;;;;;;2.05;0.73;;;0.90;81.70;;;;;;5113916;28;20085;-74
2021/04/07 01:42:44;;;;;;;2.90;1.08;;;0.90;81.80;;;;;;5113918;28;20169;-74
2021/04/07 01:45:11;;;;;;;1.70;0.73;;;0.90;81.80;;;;;;5113469;28;20044;-74
2021/04/07 01:47:37;;;;;;;1.95;0.70;;;0.90;81.80;;;;;;5113595;28;20036;-74
2021/04/07 01:50:06;;;;;;;1.23;0.68;;;0.90;81.80;;;;;;5113638;28;20577;-74
2021/04/07 01:52:32;;;;;;;2.78;1.00;;;0.90;81.80;;;;;;5113345;28;20058;-74
2021/04/07 01:54:58;;;;;;;1.30;0.50;;;1.00;81.90;;;;;;5113339;28;20138;-75
2021/04/07 01:57:24;;;;;;;1.02;0.47;;;0.90;81.90;;;;;;5095204;28;20043;-75
2021/04/07 01:59:50;;;;;;;1.05;0.50;;;1.00;82.00;;;;;;5113913;28;20447;-73
2021/04/07 02:02:16;;;;;;;0.93;0.47;;;0.90;81.90;;;;;;5113618;28;20122;-74
2021/04/07 02:04:42;;;;;;;3.85;0.70;;;1.00;82.00;;;;;;5113790;28;20082;-73
2021/04/07 02:07:13;;;;;;;2.47;0.52;;;0.90;82.00;;;;;;5113753;28;20043;-75
2021/04/07 02:09:39;;;;;;;1.57;0.53;;;1.00;82.10;;;;;;5095111;28;20059;-74
2021/04/07 02:12:06;;;;;;;1.50;0.60;;;1.00;82.10;;;;;;5113097;28;20698;-74
2021/04/07 02:14:32;;;;;;;0.68;0.43;;;1.00;82.20;;;;;;5113131;28;20035;-75
2021/04/07 02:17:01;;;;;;;0.47;0.40;;;1.10;82.30;;;;;;5113364;28;20101;-75
2021/04/07 02:19:28;;;;;;;0.38;0.35;;;1.00;82.30;;;;;;5113831;28;20035;-73
2021/04/07 02:22:11;;;;;;;0.80;0.47;;;1.00;82.30;;;;;;5112396;28;20394;-74
2021/04/07 02:24:38;;;;;;;0.65;0.55;;;1.10;82.40;;;;;;5113393;28;20130;-75
2021/04/07 02:27:14;;;;;;;1.30;0.50;;;1.10;82.40;;;;;;5113521;28;20039;-73
2021/04/07 02:29:42;;;;;;;0.55;0.40;;;1.20;82.50;;;;;;5094648;28;20042;-74
2021/04/07 02:32:08;;;;;;;0.73;0.50;;;1.20;82.40;;;;;;5094595;28;20541;-74
2021/04/07 02:34:35;;;;;;;0.60;0.35;;;1.20;82.40;;;;;;5095100;28;20044;-74
2021/04/07 02:37:01;;;;;;;0.82;0.50;;;1.20;82.40;;;;;;5112853;28;20366;-74
2021/04/07 02:39:26;;;;;;;1.10;0.47;;;1.20;82.40;;;;;;5112759;28;20046;-74
2021/04/07 02:41:54;;;;;;;1.02;0.40;;;1.30;82.50;;;;;;5113258;28;20435;-75
2021/04/07 02:44:21;;;;;;;1.00;0.30;;;1.20;82.60;;;;;;5094971;28;20045;-75
2021/04/07 02:46:47;;;;;;;0.85;0.40;;;1.20;82.70;;;;;;5112885;28;20123;-74
2021/04/07 02:49:13;;;;;;;1.58;0.57;;;1.10;82.70;;;;;;5112476;28;20044;-74
2021/04/07 02:51:39;;;;;;;0.43;0.28;;;1.20;82.80;;;;;;5112611;28;20051;-74
2021/04/07 02:54:05;;;;;;;1.20;0.50;;;1.20;82.90;;;;;;5112995;28;20039;-74
2021/04/07 02:56:33;;;;;;;0.63;0.32;;;1.20;83.00;;;;;;5077801;28;20447;-74
2021/04/07 02:58:59;;;;;;;0.45;0.30;;;1.20;83.00;;;;;;5112584;28;20036;-74
2021/04/07 03:01:28;;;;;;;1.95;0.40;;;1.20;83.00;;;;;;5094762;28;20146;-74
2021/04/07 03:03:54;;;;;;;0.90;0.30;;;1.20;83.10;;;;;;5112389;28;20126;-74
2021/04/07 03:06:20;;;;;;;0.30;0.10;;;1.10;83.10;;;;;;5112646;28;20398;-74
2021/04/07 03:08:47;;;;;;;0.60;0.38;;;1.20;83.20;;;;;;5092273;28;20040;-74
2021/04/07 03:11:13;;;;;;;0.32;0.20;;;1.20;83.30;;;;;;5113165;28;20035;-75
2021/04/07 03:13:39;;;;;;;1.33;0.60;;;1.20;83.30;;;;;;5111942;28;20500;-75
2021/04/07 03:16:05;;;;;;;0.50;0.50;;;1.20;83.30;;;;;;5112228;28;20039;-74
2021/04/07 03:18:31;;;;;;;0.50;0.40;;;1.20;83.40;;;;;;5094396;28;20133;-74
2021/04/07 03:20:57;;;;;;;0.98;0.50;;;1.30;83.50;;;;;;5112830;28;20044;-74
2021/04/07 03:23:23;;;;;;;0.25;0.20;;;1.10;83.50;;;;;;5112028;28;20050;-73
2021/04/07 03:25:48;;;;;;;1.15;0.47;;;1.10;83.60;;;;;;5112008;28;20043;-74
2021/04/07 03:28:14;;;;;;;0.68;0.40;;;1.10;83.60;;;;;;5112194;28;20063;-74
2021/04/07 03:33:22;;;;;;;1.20;0.30;;;1.10;83.80;;;;;;5113556;28;20075;-74
2021/04/07 03:35:50;;;;;;;2.55;0.52;;;1.00;83.80;;;;;;5115590;28;20040;-74
2021/04/07 03:38:17;;;;;;;0.50;0.20;;;1.00;83.90;;;;;;5115573;28;20115;-74
2021/04/07 03:40:45;;;;;;;0.60;0.30;;;1.10;83.90;;;;;;5115712;28;20042;-73
2021/04/07 03:43:12;;;;;;;1.00;0.30;;;1.10;84.60;;;;;;5115844;28;20043;-73
2021/04/07 03:45:44;;;;;;;0.45;0.38;;;1.10;84.00;;;;;;5115408;28;20063;-73
2021/04/07 03:48:11;;;;;;;0.45;0.32;;;1.10;84.10;;;;;;5115581;28;20508;-74
2021/04/07 03:50:39;;;;;;;0.82;0.40;;;1.10;84.10;;;;;;5097596;28;20040;-74
2021/04/07 03:53:05;;;;;;;0.82;0.28;;;1.10;84.10;;;;;;5115884;28;20047;-73
2021/04/07 03:55:31;;;;;;;0.40;0.30;;;1.10;84.10;;;;;;5115635;28;20051;-74
2021/04/07 03:57:57;;;;;;;2.55;0.30;;;1.20;84.20;;;;;;5115146;28;20032;-74
2021/04/07 04:00:23;;;;;;;0.47;0.22;;;1.20;84.20;;;;;;5115297;28;20043;-74
2021/04/07 04:02:49;;;;;;;0.50;0.30;;;1.20;84.20;;;;;;5115250;28;20027;-74
2021/04/07 04:05:15;;;;;;;0.40;0.28;;;1.20;84.30;;;;;;5115425;28;20447;-73
2021/04/07 04:07:41;;;;;;;0.52;0.10;;;1.10;84.30;;;;;;5115279;28;20039;-73
2021/04/07 04:10:07;;;;;;;0.88;0.38;;;1.10;84.30;;;;;;5115308;28;20093;-73
2021/04/07 04:12:33;;;;;;;0.80;0.30;;;1.10;84.40;;;;;;5115359;28;20036;-73
2021/04/07 04:14:59;;;;;;;0.70;0.40;;;1.20;84.50;;;;;;5115596;28;20036;-73
2021/04/07 04:17:24;;;;;;;1.13;0.52;;;1.10;84.50;;;;;;5097658;28;20076;-73
2021/04/07 04:19:50;;;;;;;0.47;0.30;;;1.10;84.60;;;;;;5115880;28;20046;-73
2021/04/07 04:22:16;;;;;;;0.45;0.30;;;1.20;84.80;;;;;;5114969;28;20044;-73
2021/04/07 04:24:42;;;;;;;2.08;0.47;;;1.10;84.70;;;;;;5096887;28;20070;-73
2021/04/07 04:27:09;;;;;;;0.30;0.30;;;1.10;84.80;;;;;;5096999;28;20044;-73
2021/04/07 04:29:36;;;;;;;1.63;0.30;;;1.10;84.80;;;;;;5114929;28;20051;-73
2021/04/07 04:32:02;;;;;;;0.93;0.40;;;1.10;84.80;;;;;;5114926;28;20490;-73
2021/04/07 04:34:28;;;;;;;1.30;0.20;;;1.10;84.90;;;;;;5114807;28;20043;-73
2021/04/07 04:36:53;;;;;;;0.28;0.20;;;1.10;84.90;;;;;;5114724;28;20044;-73
2021/04/07 04:39:21;;;;;;;1.50;0.40;;;1.10;84.90;;;;;;5096701;28;20051;-73
2021/04/07 04:41:47;;;;;;;0.75;0.47;;;1.10;85.00;;;;;;5114767;28;20063;-73
2021/04/07 04:44:12;;;;;;;1.17;0.40;;;1.10;85.10;;;;;;5113871;28;20096;-73
2021/04/07 04:46:38;;;;;;;0.88;0.20;;;1.10;85.10;;;;;;5114858;28;20039;-73
2021/04/07 04:49:04;;;;;;;0.77;0.52;;;1.10;85.10;;;;;;5114649;28;20068;-73
2021/04/07 04:51:30;;;;;;;0.85;0.38;;;1.10;85.10;;;;;;5114800;28;20484;-73
2021/04/07 04:53:56;;;;;;;3.15;0.68;;;1.10;85.20;;;;;;5094296;28;20048;-74
2021/04/07 04:56:21;;;;;;;1.60;0.40;;;1.10;85.20;;;;;;5114719;28;20093;-73
2021/04/07 04:58:47;;;;;;;0.77;0.40;;;1.10;85.20;;;;;;5114371;28;20093;-73
2021/04/07 05:01:13;;;;;;;0.52;0.40;;;1.10;85.20;;;;;;5096404;28;20050;-74
2021/04/07 05:03:38;;;;;;;1.00;0.50;;;1.20;85.20;;;;;;5114368;28;20401;-74
2021/04/07 05:06:04;;;;;;;0.75;0.30;;;1.20;85.20;;;;;;5096430;28;20498;-74
2021/04/07 05:08:30;;;;;;;1.65;0.57;;;1.20;85.20;;;;;;5114596;28;20046;-74
2021/04/07 05:10:56;;;;;;;0.70;0.30;;;1.20;85.30;;;;;;5114433;28;20036;-74
2021/04/07 05:13:21;;;;;;;0.40;0.38;;;1.30;85.50;;;;;;5114457;28;20489;-74
2021/04/07 05:15:47;;;;;;;2.80;0.60;;;1.20;85.50;;;;;;5095258;28;20123;-74
2021/04/07 05:18:15;;;;;;;0.47;0.43;;;1.20;85.40;;;;;;5114713;28;20481;-74
2021/04/07 05:20:41;;;;;;;0.70;0.35;;;1.30;85.50;;;;;;5114581;28;20166;-74
2021/04/07 05:23:08;;;;;;;0.60;0.40;;;1.20;85.40;;;;;;5095734;28;20460;-74
2021/04/07 05:25:35;;;;;;;2.05;0.77;;;1.30;85.50;;;;;;5114159;28;20032;-74
2021/04/07 05:28:03;;;;;;;0.68;0.50;;;1.30;85.60;;;;;;5114223;28;20476;-74
2021/04/07 05:30:58;;;;;;;0.43;0.40;;;1.30;85.50;;;;;;5114626;28;20116;-74
2021/04/07 05:33:15;;;;;;;0.60;0.40;;;1.30;85.50;;;;;;5113911;28;20052;-74
2021/04/07 05:35:41;;;;;;;0.77;0.40;;;1.40;85.50;;;;;;5095768;28;20092;-74
2021/04/07 05:38:06;;;;;;;0.40;0.25;;;1.30;85.40;;;;;;5078649;28;20028;-74
2021/04/07 05:40:32;;;;;;;0.68;0.40;;;1.40;85.50;;;;;;5114495;28;20043;-75
2021/04/07 05:43:00;;;;;;;1.27;0.70;;;1.40;85.50;;;;;;5113964;28;20050;-75
2021/04/07 05:45:26;;;;;;;1.38;0.70;;;1.50;85.70;;;;;;5114484;28;20043;-75
2021/04/07 05:47:51;;;;;;;1.50;0.77;;;1.50;85.80;;;;;;5113695;28;20048;-75
2021/04/07 05:50:17;;;;;;;1.20;0.50;;;1.50;85.90;;;;;;5114024;28;20040;-75
2021/04/07 05:52:43;;;;;;;1.25;0.57;;;1.50;85.90;;;;;;5113897;28;20043;-74
2021/04/07 05:55:10;;;;;;;0.47;0.47;;;1.50;85.90;;;;;;5113739;28;20405;-75
2021/04/07 05:57:36;;;;;;;0.43;0.40;;;1.40;86.00;;;;;;5113801;28;20035;-75
2021/04/07 06:00:02;;;;;;;0.68;0.40;;;1.30;86.10;;;;;;5113896;28;20389;-76
2021/04/07 06:02:28;;;;;;;1.15;0.45;;;1.30;86.20;;;;;;5113402;28;20086;-75
2021/04/07 06:04:53;;;;;;;0.88;0.30;;;1.30;86.40;;;;;;5113911;28;20067;-77
2021/04/07 06:07:19;;;;;;;0.80;0.50;;;1.20;86.40;;;;;;5113809;28;20040;-76
2021/04/07 06:09:45;;;;;;;1.75;0.93;;;1.20;86.50;;;;;;5113837;28;20039;-77
2021/04/07 06:12:11;;;;;;;2.30;1.20;;;1.20;86.60;;;;;;5094020;28;20040;-76
2021/04/07 06:14:36;;;;;;;2.17;1.25;;;1.20;86.80;;;;;;5096617;28;20486;-76
2021/04/07 06:17:02;;;;;;;2.78;1.30;;;1.20;86.70;;;;;;5117676;28;20508;-77
2021/04/07 06:19:28;;;;;;;1.70;1.00;;;1.30;86.70;;;;;;5124398;28;20093;-77
2021/04/07 06:21:53;;;;;;;0.73;0.70;;;1.30;86.60;;;;;;5109649;28;20429;-76
2021/04/07 06:24:19;;;;;;;1.95;0.90;;;1.30;86.60;;;;;;5128224;28;20027;-80
2021/04/07 06:26:45;;;;;;;1.52;0.82;;;1.40;86.50;;;;;;5131163;28;20054;-77
2021/04/07 06:29:10;;;;;;;1.02;0.65;;;1.50;86.50;;;;;;5131252;28;20065;-77
2021/04/07 06:31:36;;;;;;;0.77;0.60;;;1.50;86.40;;;;;;5133206;28;20059;-77
2021/04/07 06:34:02;;;;;;;0.73;0.52;;;1.60;86.30;;;;;;5125696;28;20047;-75
2021/04/07 06:36:27;;;;;;;1.38;0.68;;;1.60;86.30;;;;;;5121920;28;20036;-77
2021/04/07 06:38:53;;;;;;;0.50;0.50;;;1.70;86.20;;;;;;5134321;28;20027;-77
2021/04/07 06:41:20;;;;;;;1.00;0.50;;;1.70;86.10;;;;;;5113649;28;20044;-79
2021/04/07 06:43:49;;;;;;;0.80;0.60;;;1.70;86.10;;;;;;5129940;28;20043;-78
2021/04/07 06:46:20;;;;;;;1.08;0.80;;;1.80;86.10;;;;;;5124743;28;20043;-77
2021/04/07 06:48:48;;;;;;;1.25;0.73;;;1.80;86.10;;;;;;5130863;28;20039;-77
2021/04/07 06:51:18;;;;;;;0.68;0.65;;;1.80;86.20;;;;;;5120831;28;20092;-77
2021/04/07 06:53:50;;;;;;;1.03;0.77;;;1.90;86.10;;;;;;5120609;28;20042;-75
2021/04/07 06:56:16;;;;;;;0.73;0.70;;;2.00;86.10;;;;;;5102331;28;20448;-77
2021/04/07 06:58:42;;;;;;;1.38;0.70;;;2.00;86.60;;;;;;5120747;28;20047;-77
2021/04/07 07:01:08;;;;;;;1.27;0.80;;;2.10;85.90;;;;;;5121696;28;20035;-78
2021/04/07 07:03:33;;;;;;;1.00;0.60;;;2.20;86.00;;;;;;5116229;28;20413;-78
2021/04/07 07:05:59;;;;;;;0.52;0.52;;;2.20;86.00;;;;;;5114368;28;20503;-77
2021/04/07 07:08:25;;;;;;;0.30;0.30;;;2.30;86.10;;;;;;5116191;28;20050;-79
2021/04/07 07:10:52;;;;;;;0.82;0.50;;;2.40;86.00;;;;;;5082147;28;20044;-79
2021/04/07 07:13:21;;;;;;;0.93;0.60;;;2.60;85.80;;;;;;5120033;28;20047;-76
2021/04/07 07:15:47;;;;;;;0.68;0.60;;;2.60;85.60;;;;;;5116440;28;20050;-77
2021/04/07 07:18:25;;;;;;;1.25;0.60;;;2.60;85.50;;;;;;5115925;28;20067;-78
2021/04/07 07:20:52;;;;;;;1.30;0.60;;;2.70;85.50;;;;;;5116516;28;20039;-78
2021/04/07 07:23:33;;;;;;;0.73;0.47;;;2.80;85.40;;;;;;5118232;28;20031;-79
2021/04/07 07:26:05;;;;;;;1.97;0.70;;;2.90;85.50;;;;;;5117215;28;20032;-78
2021/04/07 07:28:48;;;;;;;1.65;0.70;;;2.90;85.40;;;;;;5084882;28;20273;-78
2021/04/07 07:31:20;;;;;;;1.55;0.80;;;3.10;85.50;;;;;;5115205;28;20130;-81
2021/04/07 07:33:46;;;;;;;;;;;3.10;85.40;;;;;;5078255;28;20127;-82
2021/04/07 07:36:12;;;;;;;0.68;0.40;;;3.20;85.30;;;;;;5118897;28;19992;-76
2021/04/07 07:38:45;;;;;;;2.05;0.55;;;3.30;85.10;;;;;;5117099;28;20039;-78
2021/04/07 07:41:11;;;;;;;1.55;0.60;;;3.30;85.00;;;;;;5101432;28;20040;-77
2021/04/07 07:43:40;;;;;;;1.25;0.60;;;3.40;85.00;;;;;;5094114;28;20048;-76
2021/04/07 07:46:13;;;;;;;0.73;0.40;;;3.40;85.10;;;;;;5113875;28;20043;-78
2021/04/07 07:48:41;;;;;;;0.45;0.45;;;3.40;85.10;;;;;;5097542;28;20040;-78
2021/04/07 07:51:24;;;;;;;1.77;0.50;;;3.40;85.20;;;;;;5119424;28;20067;-76
2021/04/07 07:53:53;;;;;;;1.67;0.40;;;3.50;85.30;;;;;;5098636;28;20039;-75
2021/04/07 07:56:21;;;;;;;0.82;0.40;;;3.60;85.30;;;;;;5114111;28;20169;-76
2021/04/07 07:58:50;;;;;;;0.40;0.25;;;3.60;85.30;;;;;;5115111;28;20164;-76
2021/04/07 08:01:18;;;;;;;0.40;0.30;;;3.70;85.20;;;;;;5115759;28;20069;-79
2021/04/07 08:03:45;;;;;;;0.43;0.30;;;3.80;85.10;;;;;;5117238;28;20039;-77
2021/04/07 08:06:12;;;;;;;0.45;0.30;;;4.00;85.00;;;;;;5096325;28;20089;-80
2021/04/07 08:08:38;;;;;;;1.20;0.40;;;4.10;85.00;;;;;;5116142;28;20146;-82
2021/04/07 08:11:05;;;;;;;1.63;0.35;;;4.30;84.80;;;;;;5077712;28;20510;-78
2021/04/07 08:13:37;;;;;;;1.92;0.32;;;4.40;84.60;;;;;;5113483;28;20043;-79
2021/04/07 08:16:05;;;;;;;0.85;0.32;;;4.50;84.50;;;;;;5093556;28;20047;-78
2021/04/07 08:18:31;;;;;;;4.03;0.70;;;4.70;84.30;;;;;;5077859;28;20049;-76
2021/04/07 08:20:57;;;;;;;4.15;0.63;;;4.90;84.30;;;;;;5096452;28;20036;-78
2021/04/07 08:23:24;;;;;;;1.77;0.70;;;5.00;84.10;;;;;;5115624;28;20088;-76
2021/04/07 08:25:54;;;;;;;0.77;0.35;;;5.10;84.10;;;;;;5116666;28;20040;-77
2021/04/07 08:28:22;;;;;;;2.60;0.70;;;5.10;84.00;;;;;;5101341;28;20047;-76
2021/04/07 08:30:49;;;;;;;2.53;0.70;;;5.20;83.90;;;;;;5098239;28;20043;-76
2021/04/07 08:33:18;;;;;;;2.75;0.70;;;5.30;83.90;;;;;;5062054;28;20060;-74
2021/04/07 08:35:45;;;;;;;4.97;0.80;;;5.30;83.90;;;;;;5115064;28;20044;-77
2021/04/07 08:38:11;;;;;;;3.05;0.80;;;5.40;84.00;;;;;;5114911;28;20051;-77
2021/04/07 08:40:45;;;;;;;2.95;0.50;;;5.30;84.10;;;;;;5096432;28;20040;-78
2021/04/07 08:43:12;;;;;;;1.10;0.40;;;5.30;84.20;;;;;;5115572;28;20063;-77
2021/04/07 08:45:44;;;;;;;2.53;0.43;;;5.30;84.40;;;;;;5116411;28;20058;-78
2021/04/07 08:48:18;;;;;;;;;;;5.40;84.50;;;;;;5118262;28;20039;-77
2021/04/07 08:50:46;;;;;;;1.42;0.50;;;5.30;84.50;;;;;;5114978;28;19911;-77
2021/04/07 08:53:15;;;;;;;2.65;0.40;;;5.40;84.50;;;;;;5097600;28;20126;-79
2021/04/07 08:55:50;;;;;;;3.65;0.80;;;5.60;84.60;;;;;;5115775;28;20042;-76
2021/04/07 08:58:23;;;;;;;3.17;0.65;;;5.80;84.40;;;;;;5080564;28;20039;-74
2021/04/07 09:00:53;;;;;;;4.35;0.95;;;5.90;83.90;;;;;;5116186;28;20047;-77
2021/04/07 09:03:22;;;;;;;4.00;0.80;;;6.00;83.60;;;;;;5117895;28;20039;-76
2021/04/07 09:05:49;;;;;;;4.95;1.15;;;6.00;83.50;;;;;;5115918;28;20050;-80
2021/04/07 09:08:21;;;;;;;7.47;1.60;;;6.00;83.60;;;;;;5099034;28;20474;-77
2021/04/07 09:10:52;;;;;;;8.75;1.77;;;5.90;83.70;;;;;;5115977;28;20118;-77
2021/04/07 09:13:23;;;;;;;5.45;1.33;;;5.90;84.00;;;;;;5115814;28;20124;-76
2021/04/07 09:15:55;;;;;;;7.35;1.38;;;5.80;84.20;;;;;;5097910;28;20039;-81
2021/04/07 09:18:41;;;;;;;4.05;1.17;;;5.80;84.30;;;;;;5063459;28;20476;-77
2021/04/07 09:21:25;;;;;;;5.07;1.30;;;5.90;84.30;;;;;;5078772;28;20426;-78
2021/04/07 09:24:00;;;;;;;5.53;1.40;;;6.00;84.30;;;;;;5115077;28;20046;-78
2021/04/07 09:26:28;;;;;;;3.03;1.00;;;6.00;84.40;;;;;;4996744;28;20181;-77
2021/04/07 09:28:56;;;;;;;3.90;1.10;;;6.30;84.40;;;;;;5012959;28;20056;-77
2021/04/07 09:31:33;;;;;;;5.07;1.20;;;6.40;84.20;;;;;;5014205;28;20046;-77
2021/04/07 09:33:59;;;;;;;5.60;1.30;;;6.60;83.80;;;;;;5013258;28;20452;-75
2021/04/07 09:36:27;;;;;;;5.72;1.17;;;6.90;83.20;;;;;;5014845;28;20496;-79
2021/04/07 09:38:55;;;;;;;5.70;1.55;;;7.10;82.80;;;;;;5013074;28;20045;-76
2021/04/07 09:41:26;;;;;;;4.35;1.40;;;7.20;82.50;;;;;;5013183;28;20128;-77
2021/04/07 09:43:54;;;;;;;4.28;1.08;;;7.30;82.30;;;;;;4997840;28;20073;-79
2021/04/07 09:46:21;;;;;;;3.38;0.88;;;7.40;82.10;;;;;;4998418;28;20046;-79
2021/04/07 09:48:51;;;;;;;3.47;1.00;;;7.40;82.00;;;;;;5013016;28;20166;-76
2021/04/07 09:51:32;;;;;;;4.63;1.33;;;7.50;81.80;;;;;;5013382;28;20049;-73
2021/04/07 09:54:18;;;;;;;8.35;1.38;;;7.40;82.00;;;;;;5012216;28;20499;-79
2021/04/07 09:57:08;;;;;;;3.55;1.02;;;7.20;82.20;;;;;;5037238;28;20032;-76
2021/04/07 09:59:37;;;;;;;4.90;1.15;;;7.10;82.50;;;;;;5115342;28;20035;-75
2021/04/07 10:02:05;;;;;;;6.93;1.58;;;6.90;82.70;;;;;;5117268;28;20511;-79
2021/04/07 10:04:34;;;;;;;3.55;1.02;;;6.70;82.80;;;;;;5118008;28;20036;-78
2021/04/07 10:07:17;;;;;;;1.88;0.63;;;6.40;83.40;;;;;;5114304;28;20040;-79
2021/04/07 10:09:44;;;;;;;2.47;0.70;;;6.20;84.10;;;;;;5095410;28;20046;-78
2021/04/07 10:12:11;;;;;;;1.77;0.70;;;6.30;84.40;;;;;;5114932;28;20059;-78
2021/04/07 10:14:49;;;;;;;2.65;0.75;;;6.40;84.50;;;;;;5115548;28;20051;-81
2021/04/07 10:17:17;;;;;;;2.70;0.68;;;6.60;84.10;;;;;;5096941;28;20131;-80
2021/04/07 10:19:44;;;;;;;4.07;0.85;;;6.60;83.70;;;;;;5099693;28;20051;-81
2021/04/07 10:22:18;;;;;;;2.67;0.60;;;6.80;83.70;;;;;;5094354;28;20128;-76
2021/04/07 10:24:47;;;;;;;2.13;0.80;;;6.80;83.40;;;;;;5116208;28;20099;-77
2021/04/07 10:27:26;;;;;;;1.95;0.93;;;6.70;83.20;;;;;;5116452;28;20413;-77
2021/04/07 10:30:08;;;;;;;4.38;1.05;;;6.80;83.10;;;;;;5117853;28;20126;-77
2021/04/07 10:32:44;;;;;;;4.28;1.17;;;6.90;83.10;;;;;;5115437;28;20104;-79
2021/04/07 10:35:27;;;;;;;3.38;0.93;;;7.10;82.70;;;;;;5112922;28;20040;-81
2021/04/07 10:38:01;;;;;;;4.88;1.00;;;7.10;82.40;;;;;;5065089;28;20042;-82
2021/04/07 10:40:30;;;;;;;4.40;1.20;;;7.00;82.10;;;;;;5095424;28;20438;-80
2021/04/07 10:42:57;;;;;;;3.25;1.08;;;6.90;82.30;;;;;;5114284;28;20046;-78
2021/04/07 10:45:27;;;;;;;2.88;0.77;;;6.70;82.70;;;;;;5093032;28;20456;-78
2021/04/07 10:48:02;;;;;;;2.72;0.80;;;6.70;83.10;;;;;;5094973;28;20043;-78
2021/04/07 10:50:31;;;;;;;6.72;1.10;;;6.70;83.20;;;;;;5050201;28;20060;-77
2021/04/07 10:52:57;;;;;;;5.70;1.50;;;6.70;82.90;;;;;;5050741;28;20045;-78
2021/04/07 10:55:25;;;;;;;5.55;1.77;;;6.70;82.60;;;;;;5049964;28;20047;-79
2021/04/07 10:57:56;;;;;;;6.85;1.25;;;6.50;82.50;;;;;;5050761;28;20095;-79
2021/04/07 11:00:34;;;;;;;4.90;1.23;;;6.30;82.90;;;;;;5034091;28;20045;-79
2021/04/07 11:03:00;;;;;;;6.68;1.50;;;6.10;83.40;;;;;;5050500;28;20045;-77
2021/04/07 11:05:38;;;;;;;4.15;0.88;;;6.00;83.90;;;;;;5050212;28;20045;-79
2021/04/07 11:08:05;;;;;;;2.60;0.75;;;5.80;84.00;;;;;;5034989;28;20049;-77
2021/04/07 11:10:41;;;;;;;3.28;0.85;;;5.90;84.10;;;;;;5050576;28;20048;-78
2021/04/07 11:13:07;;;;;;;2.75;0.73;;;6.00;84.20;;;;;;5050567;28;20045;-79
2021/04/07 11:15:33;;;;;;;3.33;0.90;;;6.10;84.20;;;;;;5050602;28;20098;-78
2021/04/07 11:18:00;;;;;;;6.15;1.05;;;6.40;84.10;;;;;;5034668;28;20036;-78
2021/04/07 11:20:27;;;;;;;2.78;0.63;;;6.70;83.40;;;;;;5056234;28;20056;-78
2021/04/07 11:22:53;;;;;;;7.15;1.38;;;6.90;82.60;;;;;;5112793;28;20040;-77
2021/04/07 11:25:22;;;;;;;4.60;0.93;;;7.10;81.90;;;;;;5093779;28;20051;-78
2021/04/07 11:27:51;;;;;;;4.75;0.98;;;7.10;81.40;;;;;;5061199;28;20051;-79
2021/04/07 11:30:32;;;;;;;6.50;1.60;;;7.10;81.30;;;;;;5113074;28;20039;-78
2021/04/07 11:33:01;;;;;;;3.75;1.15;;;7.00;81.30;;;;;;5063001;28;20040;-77
2021/04/07 11:35:33;;;;;;;4.80;1.08;;;6.70;81.20;;;;;;5112016;28;20040;-78
2021/04/07 11:38:02;;;;;;;5.47;1.20;;;6.30;81.80;;;;;;5077812;28;20046;-76
2021/04/07 11:43:46;;;;;;;7.20;1.08;;;5.90;83.30;;;;;;5112035;28;20050;-79
2021/04/07 11:46:28;;;;;;;5.90;1.10;;;5.90;83.50;;;;;;5095052;28;20119;-81
2021/04/07 11:48:58;;;;;;;4.45;1.25;;;6.10;83.40;;;;;;5091533;28;20401;-80
2021/04/07 11:54:34;;;;;;;3.75;0.90;;;6.30;82.90;;;;;;5070658;28;20257;-79
2021/04/07 11:57:03;;;;;;;2.63;0.85;;;6.50;82.60;;;;;;5053222;28;20157;-78
2021/04/07 11:59:32;;;;;;;1.67;0.40;;;6.70;82.10;;;;;;5020170;28;20041;-78
2021/04/07 12:02:01;;;;;;;1.05;0.50;;;6.80;81.70;;;;;;5003433;28;20041;-79
2021/04/07 12:04:29;;;;;;;5.00;0.88;;;7.00;81.50;;;;;;5019570;28;20056;-77
2021/04/07 12:06:56;;;;;;;0.98;0.60;;;7.10;81.20;;;;;;5035955;28;20132;-78
2021/04/07 12:09:22;;;;;;;1.55;0.60;;;7.20;81.00;;;;;;5033695;28;20146;-79
2021/04/07 12:11:48;;;;;;;2.47;0.55;;;7.30;80.80;;;;;;5052964;28;20542;-80
2021/04/07 12:14:14;;;;;;;3.80;0.70;;;7.20;80.70;;;;;;5036129;28;20521;-79
2021/04/07 12:16:40;;;;;;;2.42;0.52;;;7.10;80.50;;;;;;5052535;28;20044;-78
2021/04/07 12:19:07;;;;;;;4.30;0.90;;;6.90;80.60;;;;;;5050200;28;20196;-76
2021/04/07 12:21:33;;;;;;;3.35;0.73;;;6.80;80.80;;;;;;5072297;28;20036;-80
2021/04/07 12:24:01;;;;;;;2.80;0.50;;;6.60;81.20;;;;;;5055383;28;20098;-76
2021/04/07 12:26:30;;;;;;;5.35;0.93;;;6.70;81.30;;;;;;5055497;28;20095;-78
2021/04/07 12:29:10;;;;;;;2.42;0.82;;;6.50;81.20;;;;;;5113552;28;20040;-80
2021/04/07 12:31:36;;;;;;;2.13;0.80;;;6.40;81.20;;;;;;5097532;28;20061;-80
2021/04/07 12:34:02;;;;;;;3.25;0.90;;;6.30;81.30;;;;;;5079619;28;20513;-79
2021/04/07 12:36:29;;;;;;;5.25;1.13;;;6.20;81.30;;;;;;5095685;28;20118;-83
2021/04/07 12:38:57;;;;;;;5.88;1.15;;;5.90;81.40;;;;;;5078639;28;20052;-80
2021/04/07 12:41:47;;;;;;;4.28;0.50;;;5.80;81.90;;;;;;5097531;28;20040;-81
2021/04/07 12:44:13;;;;;;;2.85;0.77;;;5.70;82.10;;;;;;5051780;28;20075;-77
2021/04/07 12:46:41;;;;;;;4.10;1.05;;;5.80;82.30;;;;;;5052683;28;20036;-77
2021/04/07 12:49:07;;;;;;;3.83;0.90;;;6.00;82.20;;;;;;4977921;28;20573;-78
2021/04/07 12:51:33;;;;;;;3.22;0.80;;;6.10;81.70;;;;;;5012831;28;20042;-78
2021/04/07 12:54:15;;;;;;;4.95;1.23;;;6.20;81.10;;;;;;5012163;28;20042;-79
2021/04/07 12:56:41;;;;;;;2.70;0.63;;;6.30;80.80;;;;;;4966606;28;20050;-80
2021/04/07 12:59:07;;;;;;;3.45;0.93;;;6.40;80.30;;;;;;4953108;29;20059;-78
2021/04/07 13:01:36;;;;;;;4.55;0.80;;;6.70;80.00;;;;;;4953776;29;20077;-80
2021/04/07 13:04:01;;;;;;;4.57;0.70;;;6.80;79.20;;;;;;4953228;29;20517;-79
2021/04/07 13:07:21;;;;;;;5.05;1.63;;;6.80;78.90;;;;;;4967547;28;20078;-84
2021/04/07 13:09:50;;;;;;;8.13;1.35;;;6.70;79.00;;;;;;4953698;29;20052;-81
2021/04/07 13:12:19;;;;;;;7.07;1.42;;;6.60;79.00;;;;;;4970186;28;20078;-80